createdAt,value
2024-05-09T00:00:54.390Z,8.60
2024-05-09T00:03:24.844Z,8.60
2024-05-09T00:05:55.616Z,8.60
2024-05-09T00:08:27.640Z,8.60
2024-05-09T00:11:01.000Z,8.60
2024-05-09T00:13:31.660Z,8.50
2024-05-09T00:16:02.877Z,8.50
2024-05-09T00:18:35.270Z,8.50
2024-05-09T00:21:08.361Z,8.50
2024-05-09T00:23:39.561Z,8.40
2024-05-09T00:26:12.594Z,8.40
2024-05-09T00:28:42.995Z,8.30
2024-05-09T00:31:13.724Z,8.30
2024-05-09T00:33:45.720Z,8.30
2024-05-09T00:36:16.401Z,8.30
2024-05-09T00:38:47.587Z,8.30
2024-05-09T00:41:20.857Z,8.30
2024-05-09T00:43:52.713Z,8.20
2024-05-09T00:46:23.875Z,8.20
2024-05-09T00:48:54.706Z,8.20
2024-05-09T00:51:25.560Z,8.10
2024-05-09T00:53:56.295Z,8.10
2024-05-09T00:56:29.953Z,8.10
2024-05-09T00:59:00.815Z,8.00
2024-05-09T01:01:32.528Z,8.00
2024-05-09T01:04:05.439Z,8.00
2024-05-09T01:06:35.835Z,8.00
2024-05-09T01:09:08.372Z,7.90
2024-05-09T01:11:46.260Z,7.90
2024-05-09T01:14:16.829Z,7.80
2024-05-09T01:16:47.447Z,7.80
2024-05-09T01:19:23.848Z,7.80
2024-05-09T01:21:54.583Z,7.80
2024-05-09T01:24:28.163Z,7.80
2024-05-09T01:26:58.578Z,7.70
2024-05-09T01:29:29.574Z,7.70
2024-05-09T01:32:00.965Z,7.60
2024-05-09T01:34:31.483Z,7.60
2024-05-09T01:37:01.868Z,7.60
2024-05-09T01:39:34.948Z,7.50
2024-05-09T01:42:06.170Z,7.50
2024-05-09T01:44:36.896Z,7.50
2024-05-09T01:47:08.960Z,7.50
2024-05-09T01:49:40.323Z,7.50
2024-05-09T01:52:11.638Z,7.50
2024-05-09T01:54:45.203Z,7.40
2024-05-09T01:57:15.566Z,7.40
2024-05-09T01:59:46.502Z,7.40
2024-05-09T02:02:17.786Z,7.40
2024-05-09T02:04:50.425Z,7.30
2024-05-09T02:07:21.626Z,7.30
2024-05-09T02:09:57.587Z,7.20
2024-05-09T02:12:28.102Z,7.20
2024-05-09T02:14:58.770Z,7.20
2024-05-09T02:17:29.372Z,7.20
2024-05-09T02:19:59.817Z,7.20
2024-05-09T02:22:30.594Z,7.20
2024-05-09T02:25:04.174Z,7.10
2024-05-09T02:27:35.716Z,7.10
2024-05-09T02:30:18.568Z,7.10
2024-05-09T02:32:56.419Z,7.10
2024-05-09T02:35:26.847Z,7.00
2024-05-09T02:37:58.323Z,7.00
2024-05-09T02:40:36.352Z,7.00
2024-05-09T02:43:11.775Z,6.90
2024-05-09T02:45:40.639Z,6.90
2024-05-09T02:48:14.584Z,6.90
2024-05-09T02:50:45.173Z,6.90
2024-05-09T02:53:16.531Z,6.80
2024-05-09T02:55:48.516Z,6.80
2024-05-09T02:58:19.245Z,6.80
2024-05-09T03:00:47.585Z,6.80
2024-05-09T03:03:18.259Z,6.80
2024-05-09T03:05:48.523Z,6.80
2024-05-09T03:08:20.807Z,6.80
2024-05-09T03:10:52.263Z,6.80
2024-05-09T03:13:23.112Z,6.70
2024-05-09T03:15:51.168Z,6.70
2024-05-09T03:18:22.308Z,6.70
2024-05-09T03:20:51.540Z,6.60
2024-05-09T03:23:22.837Z,6.60
2024-05-09T03:25:54.367Z,6.60
2024-05-09T03:28:25.155Z,6.60
2024-05-09T03:30:53.183Z,6.50
2024-05-09T03:33:24.474Z,6.50
2024-05-09T03:35:53.770Z,6.50
2024-05-09T03:38:24.427Z,6.50
2024-05-09T03:40:58.317Z,6.40
2024-05-09T03:43:28.811Z,6.40
2024-05-09T03:45:58.383Z,6.40
2024-05-09T03:48:29.374Z,6.40
2024-05-09T03:50:59.307Z,6.40
2024-05-09T03:53:30.895Z,6.30
2024-05-09T03:56:03.786Z,6.30
2024-05-09T03:58:38.014Z,6.30
2024-05-09T04:01:06.171Z,6.20
2024-05-09T04:03:37.556Z,6.20
2024-05-09T04:06:08.223Z,6.20
2024-05-09T04:08:39.947Z,6.20
2024-05-09T04:11:11.026Z,6.20
2024-05-09T04:13:41.551Z,6.20
2024-05-09T04:16:11.371Z,6.20
2024-05-09T04:18:42.870Z,6.20
2024-05-09T04:21:11.348Z,6.20
2024-05-09T04:23:43.230Z,6.30
2024-05-09T04:26:21.549Z,6.30
2024-05-09T04:28:53.311Z,6.30
2024-05-09T04:31:21.614Z,6.30
2024-05-09T04:33:56.327Z,6.30
2024-05-09T04:36:24.565Z,6.30
2024-05-09T04:38:58.786Z,6.30
2024-05-09T04:41:32.969Z,6.30
2024-05-09T04:44:05.446Z,6.30
2024-05-09T04:46:34.110Z,6.40
2024-05-09T04:49:05.130Z,6.40
2024-05-09T04:51:35.010Z,6.50
2024-05-09T04:54:05.570Z,6.50
2024-05-09T04:56:37.589Z,6.50
2024-05-09T04:59:08.113Z,6.60
2024-05-09T05:01:36.008Z,6.60
2024-05-09T05:04:09.664Z,6.70
2024-05-09T05:06:37.495Z,6.70
2024-05-09T05:09:09.056Z,6.80
2024-05-09T05:11:48.457Z,6.80
2024-05-09T05:14:19.621Z,6.90
2024-05-09T05:16:51.030Z,6.90
2024-05-09T05:19:24.799Z,7.00
2024-05-09T05:21:55.686Z,7.10
2024-05-09T05:24:24.991Z,7.30
2024-05-09T05:27:01.690Z,7.40
2024-05-09T05:29:37.613Z,7.50
2024-05-09T05:32:10.328Z,7.70
2024-05-09T05:34:39.444Z,7.80
2024-05-09T05:37:14.008Z,7.90
2024-05-09T05:39:42.657Z,8.00
2024-05-09T05:42:20.598Z,8.10
2024-05-09T05:44:51.875Z,8.20
2024-05-09T05:47:26.482Z,8.30
2024-05-09T05:49:56.298Z,8.50
2024-05-09T05:52:30.186Z,8.60
2024-05-09T05:54:58.165Z,8.60
2024-05-09T05:57:35.084Z,8.70
2024-05-09T06:00:05.534Z,8.80
2024-05-09T06:02:44.687Z,8.90
2024-05-09T06:05:14.405Z,8.90
2024-05-09T06:07:45.646Z,9.00
2024-05-09T06:10:21.296Z,9.00
2024-05-09T06:13:00.140Z,9.10
2024-05-09T06:15:32.281Z,9.20
2024-05-09T06:18:04.840Z,9.20
2024-05-09T06:20:38.671Z,9.30
2024-05-09T06:23:10.427Z,9.40
2024-05-09T06:25:42.512Z,9.50
2024-05-09T06:28:17.990Z,9.60
2024-05-09T06:30:46.926Z,9.60
2024-05-09T06:33:20.384Z,9.60
2024-05-09T06:35:48.286Z,9.70
2024-05-09T06:38:19.533Z,9.70
2024-05-09T06:40:52.279Z,9.80
2024-05-09T06:43:25.921Z,9.80
2024-05-09T06:45:55.206Z,9.90
2024-05-09T06:48:27.541Z,10.00
2024-05-09T06:50:55.531Z,10.00
2024-05-09T06:53:26.576Z,10.00
2024-05-09T06:55:56.135Z,10.10
2024-05-09T06:58:29.873Z,10.10
2024-05-09T07:01:05.728Z,10.20
2024-05-09T07:03:36.782Z,10.20
2024-05-09T07:06:04.895Z,10.30
2024-05-09T07:08:35.736Z,10.40
2024-05-09T07:11:04.429Z,10.50
2024-05-09T07:13:38.045Z,10.60
2024-05-09T07:16:06.568Z,10.70
2024-05-09T07:18:38.393Z,10.80
2024-05-09T07:21:06.826Z,10.90
2024-05-09T07:23:38.832Z,11.00
2024-05-09T07:26:06.796Z,11.10
2024-05-09T07:28:40.894Z,11.20
2024-05-09T07:31:09.859Z,11.30
2024-05-09T07:33:40.217Z,11.40
2024-05-09T07:36:11.943Z,11.40
2024-05-09T07:38:43.669Z,11.50
2024-05-09T07:41:11.776Z,11.60
2024-05-09T07:43:44.886Z,11.80
2024-05-09T07:47:13.727Z,11.90
2024-05-09T07:54:14.640Z,12.20
2024-05-09T07:56:44.739Z,12.30
2024-05-09T07:59:18.419Z,12.50
2024-05-09T08:01:47.157Z,12.60
2024-05-09T08:04:18.610Z,12.70
2024-05-09T08:06:47.108Z,12.90
2024-05-09T08:09:21.094Z,13.00
2024-05-09T08:11:52.903Z,13.10
2024-05-09T08:14:29.076Z,13.30
2024-05-09T08:16:57.995Z,13.40
2024-05-09T08:19:29.897Z,13.60
2024-05-09T08:21:58.233Z,13.70
2024-05-09T08:24:30.104Z,13.80
2024-05-09T08:26:58.595Z,14.00
2024-05-09T08:29:32.405Z,14.10
2024-05-09T08:32:01.044Z,14.20
2024-05-09T08:34:38.359Z,14.30
2024-05-09T08:37:13.035Z,14.50
2024-05-09T08:39:49.886Z,14.60
2024-05-09T08:42:23.364Z,14.70
2024-05-09T08:44:56.512Z,14.80
2024-05-09T08:47:25.012Z,14.90
2024-05-09T08:49:58.796Z,15.00
2024-05-09T08:52:26.759Z,15.20
2024-05-09T08:54:57.618Z,15.30
2024-05-09T08:57:28.511Z,15.50
2024-05-09T09:00:09.987Z,15.60
2024-05-09T09:02:41.526Z,15.70
2024-05-09T09:05:17.029Z,15.80
2024-05-09T09:07:48.353Z,16.00
2024-05-09T09:10:29.176Z,16.10
2024-05-09T09:13:04.670Z,16.30
2024-05-09T09:15:49.416Z,16.40
2024-05-09T09:18:19.335Z,16.50
2024-05-09T09:20:52.335Z,16.70
2024-05-09T09:23:20.369Z,16.70
2024-05-09T09:25:51.983Z,16.80
2024-05-09T09:28:23.373Z,17.00
2024-05-09T09:31:05.176Z,17.00
2024-05-09T09:33:35.906Z,17.20
2024-05-09T09:36:09.011Z,17.40
2024-05-09T09:38:38.345Z,17.40
2024-05-09T09:41:10.913Z,17.60
2024-05-09T09:43:43.415Z,17.70
2024-05-09T09:46:15.933Z,17.80
2024-05-09T09:48:48.098Z,18.00
2024-05-09T09:51:16.302Z,18.00
2024-05-09T09:53:47.548Z,18.20
2024-05-09T09:56:19.515Z,18.20
2024-05-09T09:58:51.684Z,18.30
2024-05-09T10:01:24.906Z,18.30
2024-05-09T10:03:56.877Z,18.40
2024-05-09T10:06:25.575Z,18.50
2024-05-09T10:08:58.426Z,18.60
2024-05-09T10:11:31.729Z,18.80
2024-05-09T10:14:05.020Z,18.80
2024-05-09T10:16:44.087Z,18.90
2024-05-09T10:19:29.084Z,18.90
2024-05-09T10:22:06.327Z,19.10
2024-05-09T10:25:02.127Z,19.20
2024-05-09T10:27:32.189Z,19.30
2024-05-09T10:30:09.106Z,19.40
2024-05-09T10:32:47.386Z,19.50
2024-05-09T10:35:22.632Z,19.70
2024-05-09T10:37:54.877Z,19.80
2024-05-09T10:40:31.048Z,20.10
2024-05-09T10:43:04.501Z,20.20
2024-05-09T10:45:39.953Z,20.40
2024-05-09T10:48:12.298Z,20.50
2024-05-09T10:50:43.877Z,20.70
2024-05-09T10:53:11.737Z,20.80
2024-05-09T10:55:42.842Z,21.10
2024-05-09T10:58:20.792Z,21.40
2024-05-09T11:00:49.631Z,21.80
2024-05-09T11:03:24.486Z,22.00
2024-05-09T11:05:53.307Z,22.20
2024-05-09T11:08:24.211Z,22.40
2024-05-09T11:10:54.110Z,22.60
2024-05-09T11:13:31.231Z,22.90
2024-05-09T11:16:00.671Z,23.20
2024-05-09T11:18:38.158Z,23.40
2024-05-09T11:21:14.163Z,23.10
2024-05-09T11:23:44.910Z,22.90
2024-05-09T11:26:15.328Z,23.30
2024-05-09T11:28:48.397Z,23.50
2024-05-09T11:31:17.437Z,23.70
2024-05-09T11:33:52.483Z,24.00
2024-05-09T11:36:20.722Z,24.30
2024-05-09T11:38:51.031Z,24.50
2024-05-09T11:41:19.289Z,24.80
2024-05-09T11:43:52.228Z,24.80
2024-05-09T11:46:20.005Z,25.00
2024-05-09T11:48:54.583Z,25.00
2024-05-09T11:51:22.650Z,25.00
2024-05-09T11:53:54.298Z,25.00
2024-05-09T11:56:22.239Z,24.90
2024-05-09T11:58:52.938Z,24.80
2024-05-09T12:01:22.026Z,24.70
2024-05-09T12:03:57.719Z,24.60
2024-05-09T12:06:25.761Z,24.70
2024-05-09T12:08:56.531Z,24.80
2024-05-09T12:11:25.510Z,25.10
2024-05-09T12:13:56.206Z,25.40
2024-05-09T12:16:24.578Z,25.60
2024-05-09T12:18:58.667Z,25.90
2024-05-09T12:21:26.534Z,26.30
2024-05-09T12:23:56.868Z,26.40
2024-05-09T12:26:24.651Z,26.30
2024-05-09T12:28:55.006Z,26.40
2024-05-09T12:31:22.791Z,26.60
2024-05-09T12:33:57.832Z,26.60
2024-05-09T12:36:55.347Z,26.60
2024-05-09T12:39:28.206Z,26.80
2024-05-09T12:41:56.123Z,27.00
2024-05-09T12:44:26.764Z,26.90
2024-05-09T12:46:55.149Z,26.90
2024-05-09T12:49:26.651Z,27.30
2024-05-09T12:51:57.490Z,27.30
2024-05-09T12:54:28.674Z,27.70
2024-05-09T12:56:56.605Z,27.70
2024-05-09T12:59:27.277Z,28.00
2024-05-09T13:01:56.534Z,28.50
2024-05-09T13:04:28.345Z,28.80
2024-05-09T13:06:59.342Z,29.10
2024-05-09T13:09:29.782Z,29.20
2024-05-09T13:11:57.563Z,29.30
2024-05-09T13:14:28.627Z,29.50
2024-05-09T13:16:57.115Z,29.60
2024-05-09T13:19:27.992Z,29.90
2024-05-09T13:22:01.426Z,29.70
2024-05-09T13:24:32.152Z,29.30
2024-05-09T13:27:00.304Z,29.60
2024-05-09T13:29:30.657Z,29.90
2024-05-09T13:31:59.059Z,30.10
2024-05-09T13:34:29.991Z,30.60
2024-05-09T13:37:00.685Z,30.40
2024-05-09T13:39:31.230Z,30.70
2024-05-09T13:41:58.961Z,30.80
2024-05-09T13:44:29.850Z,29.90
2024-05-09T13:46:57.648Z,29.40
2024-05-09T13:49:28.548Z,29.40
2024-05-09T13:52:01.384Z,29.80
2024-05-09T13:54:32.295Z,29.30
2024-05-09T13:57:00.584Z,28.80
2024-05-09T13:59:31.335Z,27.90
2024-05-09T14:01:59.737Z,28.20
2024-05-09T14:04:31.475Z,28.60
2024-05-09T14:07:02.682Z,29.20
2024-05-09T14:09:33.341Z,29.50
2024-05-09T14:12:01.597Z,29.70
2024-05-09T14:14:32.636Z,29.60
2024-05-09T14:17:00.848Z,29.80
2024-05-09T14:19:31.530Z,29.70
2024-05-09T14:22:02.406Z,29.00
2024-05-09T14:24:34.981Z,28.20
2024-05-09T14:27:02.827Z,27.60
2024-05-09T14:29:33.662Z,27.90
2024-05-09T14:32:02.125Z,28.50
2024-05-09T14:34:33.852Z,29.20
2024-05-09T14:37:04.927Z,29.90
2024-05-09T14:39:37.247Z,30.50
2024-05-09T14:42:06.917Z,30.80
2024-05-09T14:44:37.841Z,30.60
2024-05-09T14:47:05.728Z,30.30
2024-05-09T14:49:37.787Z,30.10
2024-05-09T14:52:09.543Z,30.00
2024-05-09T14:54:46.791Z,29.10
2024-05-09T14:57:16.850Z,28.20
2024-05-09T14:59:47.858Z,28.20
2024-05-09T15:02:21.314Z,28.80
2024-05-09T15:04:52.361Z,29.20
2024-05-09T15:07:23.723Z,29.40
2024-05-09T15:09:54.293Z,29.50
2024-05-09T15:12:23.021Z,29.90
2024-05-09T15:15:03.517Z,29.70
2024-05-09T15:17:36.328Z,29.50
2024-05-09T15:20:17.020Z,29.30
2024-05-09T15:22:51.178Z,29.10
2024-05-09T15:25:21.876Z,29.30
2024-05-09T15:27:50.087Z,29.10
2024-05-09T15:30:29.921Z,28.90
2024-05-09T15:33:00.883Z,28.80
2024-05-09T15:35:31.921Z,28.50
2024-05-09T15:38:03.764Z,28.40
2024-05-09T15:40:39.584Z,27.80
2024-05-09T15:43:11.188Z,26.90
2024-05-09T15:45:42.414Z,26.30
2024-05-09T15:48:12.337Z,26.00
2024-05-09T15:50:43.675Z,25.90
2024-05-09T15:53:15.495Z,25.70
2024-05-09T15:55:47.010Z,25.50
2024-05-09T15:58:15.118Z,25.40
2024-05-09T16:00:48.086Z,25.30
2024-05-09T16:03:17.669Z,25.30
2024-05-09T16:05:49.213Z,25.10
2024-05-09T16:08:19.812Z,25.10
2024-05-09T16:10:51.022Z,25.00
2024-05-09T16:13:19.844Z,24.60
2024-05-09T16:15:51.947Z,24.40
2024-05-09T16:18:20.091Z,24.20
2024-05-09T16:20:50.892Z,24.00
2024-05-09T16:23:21.808Z,23.80
2024-05-09T16:25:52.190Z,23.70
2024-05-09T16:28:20.897Z,23.70
2024-05-09T16:30:53.881Z,23.60
2024-05-09T16:33:23.972Z,23.50
2024-05-09T16:35:55.084Z,23.50
2024-05-09T16:38:26.119Z,23.40
2024-05-09T16:40:56.779Z,23.50
2024-05-09T16:43:24.615Z,23.50
2024-05-09T16:45:56.708Z,23.50
2024-05-09T16:48:25.420Z,23.40
2024-05-09T16:50:55.836Z,23.10
2024-05-09T16:53:27.731Z,22.90
2024-05-09T16:55:58.591Z,22.70
2024-05-09T16:58:26.581Z,22.60
2024-05-09T17:00:57.048Z,22.50
2024-05-09T17:03:24.958Z,22.40
2024-05-09T17:05:55.660Z,22.30
2024-05-09T17:08:26.228Z,22.30
2024-05-09T17:10:57.386Z,22.20
2024-05-09T17:13:28.719Z,22.20
2024-05-09T17:15:59.705Z,22.20
2024-05-09T17:18:31.373Z,22.10
2024-05-09T17:21:06.336Z,22.10
2024-05-09T17:23:37.065Z,22.00
2024-05-09T17:26:07.855Z,22.00
2024-05-09T17:28:37.462Z,21.90
2024-05-09T17:31:08.809Z,21.80
2024-05-09T17:33:36.991Z,21.70
2024-05-09T17:36:08.439Z,21.60
2024-05-09T17:38:39.015Z,21.50
2024-05-09T17:41:09.703Z,21.50
2024-05-09T17:43:37.516Z,21.40
2024-05-09T17:46:08.369Z,21.40
2024-05-09T17:48:36.525Z,21.30
2024-05-09T17:51:07.364Z,21.30
2024-05-09T17:53:40.007Z,21.10
2024-05-09T17:56:12.020Z,21.00
2024-05-09T17:58:40.092Z,20.90
2024-05-09T18:01:12.067Z,20.80
2024-05-09T18:03:40.285Z,20.70
2024-05-09T18:06:11.283Z,20.60
2024-05-09T18:08:42.398Z,20.40
2024-05-09T18:11:13.261Z,20.20
2024-05-09T18:13:41.126Z,20.00
2024-05-09T18:16:12.579Z,19.80
2024-05-09T18:18:41.525Z,19.70
2024-05-09T18:21:12.625Z,19.60
2024-05-09T18:23:43.109Z,19.40
2024-05-09T18:26:15.495Z,19.20
2024-05-09T18:28:43.334Z,18.90
2024-05-09T18:31:14.623Z,18.50
2024-05-09T18:33:42.741Z,18.20
2024-05-09T18:36:13.348Z,18.00
2024-05-09T18:38:44.331Z,17.70
2024-05-09T18:41:14.920Z,17.60
2024-05-09T18:43:45.397Z,17.30
2024-05-09T18:46:19.232Z,17.30
2024-05-09T18:48:47.408Z,17.10
2024-05-09T18:51:19.276Z,17.00
2024-05-09T18:53:52.383Z,16.90
2024-05-09T18:56:22.821Z,16.80
2024-05-09T18:58:50.827Z,16.70
2024-05-09T19:01:21.395Z,16.50
2024-05-09T19:03:49.316Z,16.50
2024-05-09T19:06:24.697Z,16.40
2024-05-09T19:08:55.823Z,16.30
2024-05-09T19:11:26.205Z,16.20
2024-05-09T19:13:53.970Z,16.00
2024-05-09T19:16:24.782Z,15.70
2024-05-09T19:18:53.920Z,15.40
2024-05-09T19:21:25.648Z,15.30
2024-05-09T19:23:56.185Z,15.20
2024-05-09T19:26:27.130Z,15.00
2024-05-09T19:28:55.704Z,14.90
2024-05-09T19:31:26.200Z,14.80
2024-05-09T19:33:55.205Z,14.60
2024-05-09T19:36:26.086Z,14.60
2024-05-09T19:38:58.092Z,14.60
2024-05-09T19:41:29.355Z,14.50
2024-05-09T19:43:57.868Z,14.50
2024-05-09T19:46:28.588Z,14.40
2024-05-09T19:48:56.902Z,14.20
2024-05-09T19:51:27.630Z,14.20
2024-05-09T19:53:58.126Z,14.10
2024-05-09T19:56:28.559Z,14.10
2024-05-09T19:58:56.652Z,14.00
2024-05-09T20:01:27.395Z,14.00
2024-05-09T20:03:59.141Z,13.90
2024-05-09T20:06:30.716Z,13.80
2024-05-09T20:09:01.184Z,13.80
2024-05-09T20:11:33.048Z,13.70
2024-05-09T20:14:02.488Z,13.70
2024-05-09T20:16:33.095Z,13.70
2024-05-09T20:19:01.096Z,13.60
2024-05-09T20:21:32.200Z,13.60
2024-05-09T20:24:02.796Z,13.50
2024-05-09T20:26:34.723Z,13.40
2024-05-09T20:29:02.410Z,13.30
2024-05-09T20:31:32.733Z,13.20
2024-05-09T20:34:03.966Z,13.10
2024-05-09T20:36:34.325Z,13.10
2024-05-09T20:39:04.872Z,13.10
2024-05-09T20:41:37.121Z,13.10
2024-05-09T20:44:06.319Z,13.00
2024-05-09T20:46:36.659Z,12.90
2024-05-09T20:49:04.549Z,12.80
2024-05-09T20:51:35.439Z,12.80
2024-05-09T20:54:07.797Z,12.70
2024-05-09T20:56:38.263Z,12.60
2024-05-09T20:59:06.550Z,12.50
2024-05-09T21:01:38.016Z,12.40
2024-05-09T21:04:06.455Z,12.30
2024-05-09T21:06:37.391Z,12.30
2024-05-09T21:09:08.230Z,12.20
2024-05-09T21:11:39.902Z,12.00
2024-05-09T21:14:07.797Z,11.90
2024-05-09T21:16:38.540Z,11.90
2024-05-09T21:19:06.485Z,11.80
2024-05-09T21:21:42.816Z,11.70
2024-05-09T21:24:13.258Z,11.70
2024-05-09T21:26:43.949Z,11.50
2024-05-09T21:29:12.215Z,11.60
2024-05-09T21:31:42.890Z,11.60
2024-05-09T21:34:12.641Z,11.70
2024-05-09T21:36:43.267Z,11.60
2024-05-09T21:39:15.458Z,11.60
2024-05-09T21:41:45.969Z,11.70
2024-05-09T21:44:15.063Z,11.60
2024-05-09T21:46:45.435Z,11.60
2024-05-09T21:49:14.430Z,11.50
2024-05-09T21:51:45.274Z,11.40
2024-05-09T21:54:16.426Z,11.40
2024-05-09T21:56:47.876Z,11.40
2024-05-09T21:59:15.592Z,11.40
2024-05-09T22:01:46.256Z,11.30
2024-05-09T22:04:14.569Z,11.20
2024-05-09T22:06:45.066Z,11.10
2024-05-09T22:09:15.582Z,10.90
2024-05-09T22:11:47.428Z,10.90
2024-05-09T22:14:15.791Z,10.90
2024-05-09T22:16:46.572Z,10.80
2024-05-09T22:19:14.952Z,10.80
2024-05-09T22:21:46.011Z,10.80
2024-05-09T22:24:16.512Z,10.70
2024-05-09T22:26:46.944Z,10.60
2024-05-09T22:29:14.614Z,10.60
2024-05-09T22:31:45.001Z,10.60
2024-05-09T22:34:13.286Z,10.50
2024-05-09T22:36:43.907Z,10.40
2024-05-09T22:39:11.937Z,10.40
2024-05-09T22:41:46.057Z,10.30
2024-05-09T22:44:14.121Z,10.30
2024-05-09T22:46:44.490Z,10.20
2024-05-09T22:49:12.379Z,10.20
2024-05-09T22:51:42.849Z,10.10
2024-05-09T22:54:11.141Z,10.00
2024-05-09T22:56:43.057Z,10.00
2024-05-09T22:59:14.461Z,10.00
2024-05-09T23:01:44.999Z,10.00
2024-05-09T23:04:12.942Z,10.10
2024-05-09T23:06:44.542Z,10.10
2024-05-09T23:09:12.540Z,10.10
2024-05-09T23:11:45.966Z,10.10
2024-05-09T23:14:16.497Z,10.10
2024-05-09T23:16:46.943Z,10.00
2024-05-09T23:19:16.381Z,10.00
2024-05-09T23:21:48.218Z,9.90
2024-05-09T23:24:16.279Z,9.90
2024-05-09T23:26:46.887Z,9.80
2024-05-09T23:29:17.411Z,9.80
2024-05-09T23:31:49.251Z,9.70
2024-05-09T23:34:17.388Z,9.60
2024-05-09T23:36:48.577Z,9.60
2024-05-09T23:39:16.828Z,9.60
2024-05-09T23:41:47.187Z,9.60
2024-05-09T23:44:18.005Z,9.60
2024-05-09T23:46:48.760Z,9.50
2024-05-09T23:49:16.520Z,9.50
2024-05-09T23:51:47.937Z,9.40
2024-05-09T23:54:16.142Z,9.40
2024-05-09T23:56:47.053Z,9.40
2024-05-09T23:59:17.511Z,9.40
